sensor_id;sensor_type;location;lat;lon;timestamp;P1;durP1;ratioP1;P2;durP2;ratioP2
1585;SDS011;786;48.718;9.514;2023-02-14T00:02:19;36.45;;;13.85;;
1585;SDS011;786;48.718;9.514;2023-02-14T00:04:45;30.92;;;13.95;;
1585;SDS011;786;48.718;9.514;2023-02-14T00:07:14;29.35;;;13.93;;
1585;SDS011;786;48.718;9.514;2023-02-14T00:09:41;35.83;;;17.08;;
1585;SDS011;786;48.718;9.514;2023-02-14T00:12:08;30.75;;;12.98;;
1585;SDS011;786;48.718;9.514;2023-02-14T00:14:35;32.60;;;13.13;;
1585;SDS011;786;48.718;9.514;2023-02-14T00:17:19;31.88;;;15.23;;
1585;SDS011;786;48.718;9.514;2023-02-14T00:19:45;30.65;;;13.98;;
1585;SDS011;786;48.718;9.514;2023-02-14T00:22:11;29.40;;;13.38;;
1585;SDS011;786;48.718;9.514;2023-02-14T00:24:38;29.45;;;11.70;;
1585;SDS011;786;48.718;9.514;2023-02-14T00:27:04;34.50;;;16.60;;
1585;SDS011;786;48.718;9.514;2023-02-14T00:29:32;28.83;;;13.60;;
1585;SDS011;786;48.718;9.514;2023-02-14T00:31:59;29.75;;;14.65;;
1585;SDS011;786;48.718;9.514;2023-02-14T00:34:25;26.25;;;13.15;;
1585;SDS011;786;48.718;9.514;2023-02-14T00:36:52;32.28;;;14.52;;
1585;SDS011;786;48.718;9.514;2023-02-14T00:39:18;38.10;;;17.08;;
1585;SDS011;786;48.718;9.514;2023-02-14T00:41:45;40.30;;;17.02;;
1585;SDS011;786;48.718;9.514;2023-02-14T00:44:12;40.88;;;16.10;;
1585;SDS011;786;48.718;9.514;2023-02-14T00:46:40;44.13;;;17.95;;
1585;SDS011;786;48.718;9.514;2023-02-14T00:49:07;43.50;;;17.33;;
1585;SDS011;786;48.718;9.514;2023-02-14T00:51:33;44.13;;;17.50;;
1585;SDS011;786;48.718;9.514;2023-02-14T00:54:00;41.45;;;17.55;;
1585;SDS011;786;48.718;9.514;2023-02-14T00:56:27;47.15;;;18.17;;
1585;SDS011;786;48.718;9.514;2023-02-14T00:58:53;45.10;;;19.98;;
1585;SDS011;786;48.718;9.514;2023-02-14T01:01:20;45.40;;;18.13;;
1585;SDS011;786;48.718;9.514;2023-02-14T01:03:48;43.22;;;17.83;;
1585;SDS011;786;48.718;9.514;2023-02-14T01:06:14;39.28;;;16.80;;
1585;SDS011;786;48.718;9.514;2023-02-14T01:08:41;40.28;;;17.15;;
1585;SDS011;786;48.718;9.514;2023-02-14T01:11:08;48.50;;;19.23;;
1585;SDS011;786;48.718;9.514;2023-02-14T01:13:36;38.65;;;17.08;;
1585;SDS011;786;48.718;9.514;2023-02-14T01:16:04;43.80;;;19.80;;
1585;SDS011;786;48.718;9.514;2023-02-14T01:18:32;44.78;;;18.10;;
1585;SDS011;786;48.718;9.514;2023-02-14T01:21:09;42.75;;;18.50;;
1585;SDS011;786;48.718;9.514;2023-02-14T01:23:39;38.03;;;16.77;;
1585;SDS011;786;48.718;9.514;2023-02-14T01:26:06;38.17;;;17.85;;
1585;SDS011;786;48.718;9.514;2023-02-14T01:28:33;38.30;;;15.80;;
1585;SDS011;786;48.718;9.514;2023-02-14T01:31:04;35.20;;;15.95;;
1585;SDS011;786;48.718;9.514;2023-02-14T01:33:32;33.55;;;15.00;;
1585;SDS011;786;48.718;9.514;2023-02-14T01:35:58;31.10;;;15.52;;
1585;SDS011;786;48.718;9.514;2023-02-14T01:38:26;26.48;;;15.43;;
1585;SDS011;786;48.718;9.514;2023-02-14T01:40:52;34.80;;;16.35;;
1585;SDS011;786;48.718;9.514;2023-02-14T01:43:19;27.38;;;13.90;;
1585;SDS011;786;48.718;9.514;2023-02-14T01:45:45;34.85;;;16.63;;
1585;SDS011;786;48.718;9.514;2023-02-14T01:48:11;32.88;;;15.10;;
1585;SDS011;786;48.718;9.514;2023-02-14T01:50:39;35.00;;;14.02;;
1585;SDS011;786;48.718;9.514;2023-02-14T01:53:08;30.83;;;15.38;;
1585;SDS011;786;48.718;9.514;2023-02-14T01:55:40;34.42;;;15.38;;
1585;SDS011;786;48.718;9.514;2023-02-14T01:58:08;31.23;;;13.85;;
1585;SDS011;786;48.718;9.514;2023-02-14T02:00:37;26.02;;;11.15;;
1585;SDS011;786;48.718;9.514;2023-02-14T02:03:24;27.73;;;13.45;;
1585;SDS011;786;48.718;9.514;2023-02-14T02:05:52;31.20;;;14.98;;
1585;SDS011;786;48.718;9.514;2023-02-14T02:08:21;31.20;;;15.35;;
1585;SDS011;786;48.718;9.514;2023-02-14T02:10:49;27.88;;;13.68;;
1585;SDS011;786;48.718;9.514;2023-02-14T02:13:17;31.10;;;14.27;;
1585;SDS011;786;48.718;9.514;2023-02-14T02:15:46;32.40;;;16.33;;
1585;SDS011;786;48.718;9.514;2023-02-14T02:18:20;33.53;;;15.02;;
1585;SDS011;786;48.718;9.514;2023-02-14T02:23:52;30.67;;;14.45;;
1585;SDS011;786;48.718;9.514;2023-02-14T02:26:52;31.80;;;13.35;;
1585;SDS011;786;48.718;9.514;2023-02-14T02:29:38;35.95;;;18.10;;
1585;SDS011;786;48.718;9.514;2023-02-14T02:32:30;31.48;;;16.80;;
1585;SDS011;786;48.718;9.514;2023-02-14T02:35:21;34.78;;;14.20;;
1585;SDS011;786;48.718;9.514;2023-02-14T02:37:58;36.83;;;16.58;;
1585;SDS011;786;48.718;9.514;2023-02-14T02:40:34;37.13;;;18.05;;
1585;SDS011;786;48.718;9.514;2023-02-14T02:43:12;45.08;;;17.77;;
1585;SDS011;786;48.718;9.514;2023-02-14T02:45:53;45.03;;;20.55;;
1585;SDS011;786;48.718;9.514;2023-02-14T02:48:42;40.83;;;18.90;;
1585;SDS011;786;48.718;9.514;2023-02-14T02:51:15;42.13;;;18.15;;
1585;SDS011;786;48.718;9.514;2023-02-14T02:54:04;46.47;;;19.13;;
1585;SDS011;786;48.718;9.514;2023-02-14T02:56:34;44.03;;;17.45;;
1585;SDS011;786;48.718;9.514;2023-02-14T02:59:13;34.80;;;16.48;;
1585;SDS011;786;48.718;9.514;2023-02-14T03:01:44;43.95;;;20.42;;
1585;SDS011;786;48.718;9.514;2023-02-14T03:04:14;43.28;;;17.80;;
1585;SDS011;786;48.718;9.514;2023-02-14T03:07:00;36.22;;;17.65;;
1585;SDS011;786;48.718;9.514;2023-02-14T03:09:48;40.85;;;18.33;;
1585;SDS011;786;48.718;9.514;2023-02-14T03:12:18;37.83;;;17.27;;
1585;SDS011;786;48.718;9.514;2023-02-14T03:14:55;43.45;;;18.08;;
1585;SDS011;786;48.718;9.514;2023-02-14T03:17:28;36.33;;;17.95;;
1585;SDS011;786;48.718;9.514;2023-02-14T03:20:02;42.10;;;18.75;;
1585;SDS011;786;48.718;9.514;2023-02-14T03:22:48;36.15;;;16.90;;
1585;SDS011;786;48.718;9.514;2023-02-14T03:25:27;39.35;;;19.60;;
1585;SDS011;786;48.718;9.514;2023-02-14T03:28:00;39.85;;;17.48;;
1585;SDS011;786;48.718;9.514;2023-02-14T03:30:32;34.13;;;15.38;;
1585;SDS011;786;48.718;9.514;2023-02-14T03:35:41;39.60;;;17.48;;
1585;SDS011;786;48.718;9.514;2023-02-14T03:38:15;41.10;;;17.70;;
1585;SDS011;786;48.718;9.514;2023-02-14T03:40:46;42.88;;;20.02;;
1585;SDS011;786;48.718;9.514;2023-02-14T03:43:19;39.78;;;18.45;;
1585;SDS011;786;48.718;9.514;2023-02-14T03:45:50;33.85;;;17.73;;
1585;SDS011;786;48.718;9.514;2023-02-14T03:48:18;37.30;;;17.10;;
1585;SDS011;786;48.718;9.514;2023-02-14T03:50:48;36.90;;;17.90;;
1585;SDS011;786;48.718;9.514;2023-02-14T03:53:19;37.28;;;18.10;;
1585;SDS011;786;48.718;9.514;2023-02-14T03:55:49;36.20;;;16.85;;
1585;SDS011;786;48.718;9.514;2023-02-14T03:58:20;36.80;;;16.40;;
1585;SDS011;786;48.718;9.514;2023-02-14T04:00:49;33.17;;;16.30;;
1585;SDS011;786;48.718;9.514;2023-02-14T04:03:18;37.13;;;16.10;;
1585;SDS011;786;48.718;9.514;2023-02-14T04:05:45;33.70;;;17.35;;
1585;SDS011;786;48.718;9.514;2023-02-14T04:08:20;34.92;;;16.65;;
1585;SDS011;786;48.718;9.514;2023-02-14T04:10:47;32.97;;;15.38;;
1585;SDS011;786;48.718;9.514;2023-02-14T04:13:14;38.63;;;16.70;;
1585;SDS011;786;48.718;9.514;2023-02-14T04:18:10;35.83;;;17.52;;
1585;SDS011;786;48.718;9.514;2023-02-14T04:20:54;34.20;;;18.33;;
1585;SDS011;786;48.718;9.514;2023-02-14T04:23:22;37.33;;;16.08;;
1585;SDS011;786;48.718;9.514;2023-02-14T04:25:48;30.45;;;16.33;;
1585;SDS011;786;48.718;9.514;2023-02-14T04:28:15;35.53;;;18.15;;
1585;SDS011;786;48.718;9.514;2023-02-14T04:30:41;30.02;;;14.85;;
1585;SDS011;786;48.718;9.514;2023-02-14T04:33:07;31.77;;;16.20;;
1585;SDS011;786;48.718;9.514;2023-02-14T04:35:34;33.60;;;16.92;;
1585;SDS011;786;48.718;9.514;2023-02-14T04:38:02;34.08;;;16.73;;
1585;SDS011;786;48.718;9.514;2023-02-14T04:40:30;28.45;;;13.55;;
1585;SDS011;786;48.718;9.514;2023-02-14T04:42:57;32.20;;;16.00;;
1585;SDS011;786;48.718;9.514;2023-02-14T04:45:24;31.67;;;16.42;;
1585;SDS011;786;48.718;9.514;2023-02-14T04:47:50;28.75;;;16.30;;
1585;SDS011;786;48.718;9.514;2023-02-14T04:50:17;33.78;;;17.73;;
1585;SDS011;786;48.718;9.514;2023-02-14T04:52:43;35.83;;;17.42;;
1585;SDS011;786;48.718;9.514;2023-02-14T04:55:10;33.22;;;17.15;;
1585;SDS011;786;48.718;9.514;2023-02-14T04:57:37;29.65;;;15.43;;
1585;SDS011;786;48.718;9.514;2023-02-14T05:00:04;34.42;;;17.17;;
1585;SDS011;786;48.718;9.514;2023-02-14T05:02:32;34.13;;;18.30;;
1585;SDS011;786;48.718;9.514;2023-02-14T05:04:58;35.08;;;18.80;;
1585;SDS011;786;48.718;9.514;2023-02-14T05:07:24;34.92;;;18.98;;
1585;SDS011;786;48.718;9.514;2023-02-14T05:09:51;32.97;;;17.25;;
1585;SDS011;786;48.718;9.514;2023-02-14T05:12:17;36.20;;;16.77;;
1585;SDS011;786;48.718;9.514;2023-02-14T05:14:45;30.35;;;13.73;;
1585;SDS011;786;48.718;9.514;2023-02-14T05:17:11;36.35;;;17.85;;
1585;SDS011;786;48.718;9.514;2023-02-14T05:19:38;32.75;;;16.92;;
1585;SDS011;786;48.718;9.514;2023-02-14T05:22:04;42.00;;;20.05;;
1585;SDS011;786;48.718;9.514;2023-02-14T05:24:30;37.17;;;16.00;;
1585;SDS011;786;48.718;9.514;2023-02-14T05:26:57;34.70;;;21.38;;
1585;SDS011;786;48.718;9.514;2023-02-14T05:29:23;32.65;;;16.75;;
1585;SDS011;786;48.718;9.514;2023-02-14T05:31:51;37.70;;;20.27;;
1585;SDS011;786;48.718;9.514;2023-02-14T05:34:18;36.22;;;19.33;;
1585;SDS011;786;48.718;9.514;2023-02-14T05:36:44;37.75;;;16.55;;
1585;SDS011;786;48.718;9.514;2023-02-14T05:39:11;35.95;;;16.75;;
1585;SDS011;786;48.718;9.514;2023-02-14T05:41:38;37.03;;;18.10;;
1585;SDS011;786;48.718;9.514;2023-02-14T05:44:04;34.20;;;17.15;;
1585;SDS011;786;48.718;9.514;2023-02-14T05:46:31;34.08;;;15.30;;
1585;SDS011;786;48.718;9.514;2023-02-14T05:48:59;38.00;;;18.80;;
1585;SDS011;786;48.718;9.514;2023-02-14T05:51:25;37.28;;;16.92;;
1585;SDS011;786;48.718;9.514;2023-02-14T05:53:51;36.90;;;17.17;;
1585;SDS011;786;48.718;9.514;2023-02-14T05:56:18;34.60;;;17.45;;
1585;SDS011;786;48.718;9.514;2023-02-14T05:58:44;39.70;;;16.35;;
1585;SDS011;786;48.718;9.514;2023-02-14T06:01:10;35.55;;;18.77;;
1585;SDS011;786;48.718;9.514;2023-02-14T06:03:37;53.97;;;26.63;;
1585;SDS011;786;48.718;9.514;2023-02-14T06:06:05;32.92;;;16.23;;
1585;SDS011;786;48.718;9.514;2023-02-14T06:08:31;39.70;;;20.27;;
1585;SDS011;786;48.718;9.514;2023-02-14T06:10:57;35.83;;;18.42;;
1585;SDS011;786;48.718;9.514;2023-02-14T06:13:24;31.35;;;17.23;;
1585;SDS011;786;48.718;9.514;2023-02-14T06:15:50;26.83;;;15.00;;
1585;SDS011;786;48.718;9.514;2023-02-14T06:18:17;35.50;;;16.88;;
1585;SDS011;786;48.718;9.514;2023-02-14T06:20:43;33.78;;;14.95;;
1585;SDS011;786;48.718;9.514;2023-02-14T06:23:11;30.95;;;15.85;;
1585;SDS011;786;48.718;9.514;2023-02-14T06:25:37;30.67;;;14.98;;
1585;SDS011;786;48.718;9.514;2023-02-14T06:28:04;35.53;;;17.65;;
1585;SDS011;786;48.718;9.514;2023-02-14T06:30:30;32.88;;;17.05;;
1585;SDS011;786;48.718;9.514;2023-02-14T06:32:56;30.05;;;15.45;;
1585;SDS011;786;48.718;9.514;2023-02-14T06:35:23;31.67;;;17.70;;
1585;SDS011;786;48.718;9.514;2023-02-14T06:37:49;30.85;;;16.23;;
1585;SDS011;786;48.718;9.514;2023-02-14T06:40:17;32.15;;;14.63;;
1585;SDS011;786;48.718;9.514;2023-02-14T06:42:44;29.10;;;15.75;;
1585;SDS011;786;48.718;9.514;2023-02-14T06:45:10;27.05;;;16.05;;
1585;SDS011;786;48.718;9.514;2023-02-14T06:47:37;26.58;;;15.55;;
1585;SDS011;786;48.718;9.514;2023-02-14T06:50:04;24.35;;;15.55;;
1585;SDS011;786;48.718;9.514;2023-02-14T06:52:31;27.00;;;15.00;;
1585;SDS011;786;48.718;9.514;2023-02-14T06:54:57;31.65;;;16.52;;
1585;SDS011;786;48.718;9.514;2023-02-14T06:57:25;31.98;;;18.15;;
1585;SDS011;786;48.718;9.514;2023-02-14T06:59:51;34.05;;;18.45;;
1585;SDS011;786;48.718;9.514;2023-02-14T07:02:18;39.38;;;18.02;;
1585;SDS011;786;48.718;9.514;2023-02-14T07:04:45;41.08;;;20.40;;
1585;SDS011;786;48.718;9.514;2023-02-14T07:07:11;44.22;;;21.67;;
1585;SDS011;786;48.718;9.514;2023-02-14T07:09:37;46.80;;;19.60;;
1585;SDS011;786;48.718;9.514;2023-02-14T07:12:04;41.25;;;20.65;;
1585;SDS011;786;48.718;9.514;2023-02-14T07:14:32;44.13;;;18.13;;
1585;SDS011;786;48.718;9.514;2023-02-14T07:16:58;105.63;;;31.25;;
1585;SDS011;786;48.718;9.514;2023-02-14T07:19:25;226.90;;;40.47;;
1585;SDS011;786;48.718;9.514;2023-02-14T07:21:51;400.20;;;63.60;;
1585;SDS011;786;48.718;9.514;2023-02-14T07:24:17;605.88;;;96.32;;
1585;SDS011;786;48.718;9.514;2023-02-14T07:26:44;252.77;;;40.85;;
1585;SDS011;786;48.718;9.514;2023-02-14T07:29:10;437.27;;;61.90;;
1585;SDS011;786;48.718;9.514;2023-02-14T07:31:38;808.78;;;126.82;;
1585;SDS011;786;48.718;9.514;2023-02-14T07:34:04;976.92;;;168.18;;
1585;SDS011;786;48.718;9.514;2023-02-14T07:36:31;760.13;;;126.05;;
1585;SDS011;786;48.718;9.514;2023-02-14T07:38:57;1446.50;;;230.50;;
1585;SDS011;786;48.718;9.514;2023-02-14T07:41:23;1237.95;;;177.07;;
1585;SDS011;786;48.718;9.514;2023-02-14T07:43:50;107.60;;;25.20;;
1585;SDS011;786;48.718;9.514;2023-02-14T07:46:16;99.45;;;24.42;;
1585;SDS011;786;48.718;9.514;2023-02-14T07:48:44;27.60;;;23.02;;
1585;SDS011;786;48.718;9.514;2023-02-14T07:51:10;52.15;;;20.77;;
1585;SDS011;786;48.718;9.514;2023-02-14T07:53:36;25.25;;;18.67;;
1585;SDS011;786;48.718;9.514;2023-02-14T07:56:03;23.73;;;18.23;;
1585;SDS011;786;48.718;9.514;2023-02-14T07:58:29;42.38;;;26.40;;
1585;SDS011;786;48.718;9.514;2023-02-14T08:00:56;40.25;;;29.48;;
1585;SDS011;786;48.718;9.514;2023-02-14T08:03:22;54.28;;;36.53;;
1585;SDS011;786;48.718;9.514;2023-02-14T08:05:50;63.92;;;43.65;;
1585;SDS011;786;48.718;9.514;2023-02-14T08:08:21;36.13;;;26.02;;
1585;SDS011;786;48.718;9.514;2023-02-14T08:10:48;63.83;;;46.53;;
1585;SDS011;786;48.718;9.514;2023-02-14T08:13:15;92.00;;;68.22;;
1585;SDS011;786;48.718;9.514;2023-02-14T08:15:41;166.27;;;112.32;;
1585;SDS011;786;48.718;9.514;2023-02-14T08:18:25;68.18;;;51.17;;
1585;SDS011;786;48.718;9.514;2023-02-14T08:20:53;36.00;;;32.08;;
1585;SDS011;786;48.718;9.514;2023-02-14T08:23:20;28.27;;;23.02;;
1585;SDS011;786;48.718;9.514;2023-02-14T08:25:47;26.45;;;23.75;;
1585;SDS011;786;48.718;9.514;2023-02-14T08:28:14;22.15;;;19.48;;
1585;SDS011;786;48.718;9.514;2023-02-14T08:30:41;21.38;;;19.17;;
1585;SDS011;786;48.718;9.514;2023-02-14T08:33:07;23.13;;;20.77;;
1585;SDS011;786;48.718;9.514;2023-02-14T08:35:34;22.42;;;20.05;;
1585;SDS011;786;48.718;9.514;2023-02-14T08:38:02;22.45;;;20.15;;
1585;SDS011;786;48.718;9.514;2023-02-14T08:40:29;20.73;;;18.20;;
1585;SDS011;786;48.718;9.514;2023-02-14T08:42:55;23.55;;;21.20;;
1585;SDS011;786;48.718;9.514;2023-02-14T08:45:22;22.85;;;20.65;;
1585;SDS011;786;48.718;9.514;2023-02-14T08:47:48;21.77;;;19.15;;
1585;SDS011;786;48.718;9.514;2023-02-14T08:50:15;33.10;;;28.83;;
1585;SDS011;786;48.718;9.514;2023-02-14T08:52:42;24.58;;;22.13;;
1585;SDS011;786;48.718;9.514;2023-02-14T08:55:10;23.60;;;21.35;;
1585;SDS011;786;48.718;9.514;2023-02-14T08:57:38;21.70;;;19.60;;
1585;SDS011;786;48.718;9.514;2023-02-14T09:00:05;22.83;;;20.80;;
1585;SDS011;786;48.718;9.514;2023-02-14T09:02:33;22.83;;;20.65;;
1585;SDS011;786;48.718;9.514;2023-02-14T09:05:00;22.65;;;20.50;;
1585;SDS011;786;48.718;9.514;2023-02-14T09:07:26;21.60;;;19.50;;
1585;SDS011;786;48.718;9.514;2023-02-14T09:09:53;24.35;;;22.08;;
1585;SDS011;786;48.718;9.514;2023-02-14T09:12:20;21.58;;;19.58;;
1585;SDS011;786;48.718;9.514;2023-02-14T09:14:47;21.63;;;19.58;;
1585;SDS011;786;48.718;9.514;2023-02-14T09:17:13;19.45;;;17.60;;
1585;SDS011;786;48.718;9.514;2023-02-14T09:19:40;20.30;;;18.40;;
1585;SDS011;786;48.718;9.514;2023-02-14T09:22:08;22.58;;;20.55;;
1585;SDS011;786;48.718;9.514;2023-02-14T09:24:36;20.85;;;18.95;;
1585;SDS011;786;48.718;9.514;2023-02-14T09:27:04;19.38;;;17.58;;
1585;SDS011;786;48.718;9.514;2023-02-14T09:29:32;18.63;;;16.83;;
1585;SDS011;786;48.718;9.514;2023-02-14T09:31:59;23.13;;;21.13;;
1585;SDS011;786;48.718;9.514;2023-02-14T09:34:26;21.52;;;19.40;;
1585;SDS011;786;48.718;9.514;2023-02-14T09:37:11;19.88;;;18.08;;
1585;SDS011;786;48.718;9.514;2023-02-14T09:39:55;20.50;;;18.60;;
1585;SDS011;786;48.718;9.514;2023-02-14T09:42:25;17.77;;;16.10;;
1585;SDS011;786;48.718;9.514;2023-02-14T09:45:05;20.80;;;18.95;;
1585;SDS011;786;48.718;9.514;2023-02-14T09:47:35;25.50;;;21.92;;
1585;SDS011;786;48.718;9.514;2023-02-14T09:50:06;19.60;;;17.83;;
1585;SDS011;786;48.718;9.514;2023-02-14T09:52:40;18.35;;;16.55;;
1585;SDS011;786;48.718;9.514;2023-02-14T09:55:08;19.45;;;17.65;;
1585;SDS011;786;48.718;9.514;2023-02-14T09:57:40;18.50;;;16.80;;
1585;SDS011;786;48.718;9.514;2023-02-14T10:00:15;21.08;;;19.27;;
1585;SDS011;786;48.718;9.514;2023-02-14T10:02:47;19.27;;;17.48;;
1585;SDS011;786;48.718;9.514;2023-02-14T10:05:23;18.80;;;16.98;;
1585;SDS011;786;48.718;9.514;2023-02-14T10:08:02;19.65;;;17.75;;
1585;SDS011;786;48.718;9.514;2023-02-14T10:10:32;17.95;;;16.15;;
1585;SDS011;786;48.718;9.514;2023-02-14T10:13:04;18.50;;;16.80;;
1585;SDS011;786;48.718;9.514;2023-02-14T10:15:35;19.83;;;18.02;;
1585;SDS011;786;48.718;9.514;2023-02-14T10:18:04;24.15;;;22.17;;
1585;SDS011;786;48.718;9.514;2023-02-14T10:20:35;17.65;;;16.15;;
1585;SDS011;786;48.718;9.514;2023-02-14T10:23:04;20.73;;;18.95;;
1585;SDS011;786;48.718;9.514;2023-02-14T10:25:38;18.50;;;16.80;;
1585;SDS011;786;48.718;9.514;2023-02-14T10:28:08;19.95;;;18.25;;
1585;SDS011;786;48.718;9.514;2023-02-14T10:30:38;20.73;;;18.83;;
1585;SDS011;786;48.718;9.514;2023-02-14T10:33:06;22.70;;;20.77;;
1585;SDS011;786;48.718;9.514;2023-02-14T10:35:39;22.23;;;20.30;;
1585;SDS011;786;48.718;9.514;2023-02-14T10:38:11;19.92;;;18.02;;
1585;SDS011;786;48.718;9.514;2023-02-14T10:40:48;19.85;;;18.10;;
1585;SDS011;786;48.718;9.514;2023-02-14T10:43:27;19.42;;;17.65;;
1585;SDS011;786;48.718;9.514;2023-02-14T10:46:01;19.35;;;17.55;;
1585;SDS011;786;48.718;9.514;2023-02-14T10:48:32;19.15;;;17.42;;
1585;SDS011;786;48.718;9.514;2023-02-14T10:51:08;19.98;;;18.13;;
1585;SDS011;786;48.718;9.514;2023-02-14T10:53:40;20.25;;;18.25;;
1585;SDS011;786;48.718;9.514;2023-02-14T10:56:11;21.80;;;19.80;;
1585;SDS011;786;48.718;9.514;2023-02-14T10:58:42;21.98;;;19.88;;
1585;SDS011;786;48.718;9.514;2023-02-14T11:01:11;19.33;;;17.40;;
1585;SDS011;786;48.718;9.514;2023-02-14T11:03:39;24.02;;;18.38;;
1585;SDS011;786;48.718;9.514;2023-02-14T11:06:07;20.48;;;18.67;;
1585;SDS011;786;48.718;9.514;2023-02-14T11:08:35;20.55;;;18.52;;
1585;SDS011;786;48.718;9.514;2023-02-14T11:11:03;18.35;;;16.73;;
1585;SDS011;786;48.718;9.514;2023-02-14T11:13:39;19.08;;;17.27;;
1585;SDS011;786;48.718;9.514;2023-02-14T11:16:06;18.83;;;17.05;;
1585;SDS011;786;48.718;9.514;2023-02-14T11:18:35;21.35;;;19.35;;
1585;SDS011;786;48.718;9.514;2023-02-14T11:21:05;22.08;;;19.92;;
1585;SDS011;786;48.718;9.514;2023-02-14T11:23:34;18.23;;;16.33;;
1585;SDS011;786;48.718;9.514;2023-02-14T11:26:02;21.17;;;19.08;;
1585;SDS011;786;48.718;9.514;2023-02-14T11:28:31;19.23;;;17.33;;
1585;SDS011;786;48.718;9.514;2023-02-14T11:30:57;20.88;;;18.77;;
1585;SDS011;786;48.718;9.514;2023-02-14T11:33:27;23.15;;;21.05;;
1585;SDS011;786;48.718;9.514;2023-02-14T11:35:59;20.50;;;18.55;;
1585;SDS011;786;48.718;9.514;2023-02-14T11:38:27;22.75;;;20.52;;
1585;SDS011;786;48.718;9.514;2023-02-14T11:40:55;20.27;;;18.38;;
1585;SDS011;786;48.718;9.514;2023-02-14T11:43:29;19.40;;;17.50;;
1585;SDS011;786;48.718;9.514;2023-02-14T11:46:03;20.80;;;18.80;;
1585;SDS011;786;48.718;9.514;2023-02-14T11:48:37;20.30;;;18.17;;
1585;SDS011;786;48.718;9.514;2023-02-14T11:51:05;26.30;;;23.90;;
1585;SDS011;786;48.718;9.514;2023-02-14T11:53:36;20.65;;;18.52;;
1585;SDS011;786;48.718;9.514;2023-02-14T11:56:05;21.25;;;19.10;;
1585;SDS011;786;48.718;9.514;2023-02-14T11:58:32;19.55;;;17.55;;
1585;SDS011;786;48.718;9.514;2023-02-14T12:01:01;23.05;;;20.88;;
1585;SDS011;786;48.718;9.514;2023-02-14T12:03:30;21.90;;;17.85;;
1585;SDS011;786;48.718;9.514;2023-02-14T12:05:59;26.05;;;23.67;;
1585;SDS011;786;48.718;9.514;2023-02-14T12:08:28;25.80;;;23.40;;
1585;SDS011;786;48.718;9.514;2023-02-14T12:11:00;20.23;;;18.20;;
1585;SDS011;786;48.718;9.514;2023-02-14T12:13:27;21.27;;;19.17;;
1585;SDS011;786;48.718;9.514;2023-02-14T12:15:54;20.17;;;18.10;;
1585;SDS011;786;48.718;9.514;2023-02-14T12:18:35;20.25;;;18.33;;
1585;SDS011;786;48.718;9.514;2023-02-14T12:21:09;22.40;;;20.15;;
1585;SDS011;786;48.718;9.514;2023-02-14T12:23:42;19.27;;;17.52;;
1585;SDS011;786;48.718;9.514;2023-02-14T12:26:12;19.63;;;17.65;;
1585;SDS011;786;48.718;9.514;2023-02-14T12:28:44;19.92;;;17.83;;
1585;SDS011;786;48.718;9.514;2023-02-14T12:31:14;20.17;;;17.63;;
1585;SDS011;786;48.718;9.514;2023-02-14T12:33:41;21.27;;;19.08;;
1585;SDS011;786;48.718;9.514;2023-02-14T12:36:08;22.10;;;19.83;;
1585;SDS011;786;48.718;9.514;2023-02-14T12:38:43;18.13;;;16.38;;
1585;SDS011;786;48.718;9.514;2023-02-14T12:41:19;16.95;;;14.85;;
1585;SDS011;786;48.718;9.514;2023-02-14T12:43:53;20.23;;;18.23;;
1585;SDS011;786;48.718;9.514;2023-02-14T12:46:22;18.75;;;16.75;;
1585;SDS011;786;48.718;9.514;2023-02-14T12:49:01;17.20;;;15.35;;
1585;SDS011;786;48.718;9.514;2023-02-14T12:51:37;21.15;;;17.33;;
1585;SDS011;786;48.718;9.514;2023-02-14T12:54:10;20.10;;;17.08;;
1585;SDS011;786;48.718;9.514;2023-02-14T12:56:45;17.50;;;15.55;;
1585;SDS011;786;48.718;9.514;2023-02-14T12:59:17;16.88;;;15.13;;
1585;SDS011;786;48.718;9.514;2023-02-14T13:04:52;18.95;;;16.45;;
1585;SDS011;786;48.718;9.514;2023-02-14T13:07:25;17.65;;;15.85;;
1585;SDS011;786;48.718;9.514;2023-02-14T13:10:17;16.73;;;14.95;;
1585;SDS011;786;48.718;9.514;2023-02-14T13:12:50;17.65;;;15.77;;
1585;SDS011;786;48.718;9.514;2023-02-14T13:15:24;17.17;;;14.43;;
1585;SDS011;786;48.718;9.514;2023-02-14T13:17:55;21.55;;;18.05;;
1585;SDS011;786;48.718;9.514;2023-02-14T13:20:29;16.65;;;14.23;;
1585;SDS011;786;48.718;9.514;2023-02-14T13:23:03;18.33;;;14.82;;
1585;SDS011;786;48.718;9.514;2023-02-14T13:25:33;18.90;;;16.88;;
1585;SDS011;786;48.718;9.514;2023-02-14T13:28:02;20.30;;;15.57;;
1585;SDS011;786;48.718;9.514;2023-02-14T13:30:30;16.20;;;13.25;;
1585;SDS011;786;48.718;9.514;2023-02-14T13:33:00;19.48;;;15.05;;
1585;SDS011;786;48.718;9.514;2023-02-14T13:35:28;15.68;;;13.38;;
1585;SDS011;786;48.718;9.514;2023-02-14T13:38:01;17.55;;;15.23;;
1585;SDS011;786;48.718;9.514;2023-02-14T13:40:31;17.95;;;13.88;;
1585;SDS011;786;48.718;9.514;2023-02-14T13:42:58;17.40;;;13.40;;
1585;SDS011;786;48.718;9.514;2023-02-14T13:48:28;18.85;;;14.85;;
1585;SDS011;786;48.718;9.514;2023-02-14T13:50:55;19.75;;;17.38;;
1585;SDS011;786;48.718;9.514;2023-02-14T13:53:29;19.42;;;15.77;;
1585;SDS011;786;48.718;9.514;2023-02-14T13:56:02;20.25;;;16.75;;
1585;SDS011;786;48.718;9.514;2023-02-14T13:58:29;18.75;;;14.80;;
1585;SDS011;786;48.718;9.514;2023-02-14T14:00:56;20.85;;;16.73;;
1585;SDS011;786;48.718;9.514;2023-02-14T14:06:18;19.15;;;16.02;;
1585;SDS011;786;48.718;9.514;2023-02-14T14:08:45;20.38;;;16.55;;
1585;SDS011;786;48.718;9.514;2023-02-14T14:14:29;17.13;;;13.65;;
1585;SDS011;786;48.718;9.514;2023-02-14T14:17:00;19.10;;;14.82;;
1585;SDS011;786;48.718;9.514;2023-02-14T14:19:36;20.13;;;14.55;;
1585;SDS011;786;48.718;9.514;2023-02-14T14:22:04;20.55;;;14.60;;
1585;SDS011;786;48.718;9.514;2023-02-14T14:24:33;19.77;;;15.10;;
1585;SDS011;786;48.718;9.514;2023-02-14T14:27:00;18.60;;;14.40;;
1585;SDS011;786;48.718;9.514;2023-02-14T14:29:31;16.85;;;12.95;;
1585;SDS011;786;48.718;9.514;2023-02-14T14:32:06;21.33;;;14.98;;
1585;SDS011;786;48.718;9.514;2023-02-14T14:34:33;19.85;;;15.00;;
1585;SDS011;786;48.718;9.514;2023-02-14T14:37:00;18.45;;;13.82;;
1585;SDS011;786;48.718;9.514;2023-02-14T14:39:29;16.20;;;12.65;;
1585;SDS011;786;48.718;9.514;2023-02-14T14:42:03;19.55;;;14.98;;
1585;SDS011;786;48.718;9.514;2023-02-14T14:44:32;18.83;;;14.77;;
1585;SDS011;786;48.718;9.514;2023-02-14T14:46:59;20.15;;;15.82;;
1585;SDS011;786;48.718;9.514;2023-02-14T14:49:26;19.35;;;13.18;;
1585;SDS011;786;48.718;9.514;2023-02-14T14:51:53;19.58;;;14.48;;
1585;SDS011;786;48.718;9.514;2023-02-14T14:54:20;19.40;;;15.27;;
1585;SDS011;786;48.718;9.514;2023-02-14T14:56:50;18.33;;;14.20;;
1585;SDS011;786;48.718;9.514;2023-02-14T14:59:18;18.85;;;15.13;;
1585;SDS011;786;48.718;9.514;2023-02-14T15:01:52;20.55;;;16.55;;
1585;SDS011;786;48.718;9.514;2023-02-14T15:04:23;18.42;;;14.77;;
1585;SDS011;786;48.718;9.514;2023-02-14T15:06:51;19.05;;;14.60;;
1585;SDS011;786;48.718;9.514;2023-02-14T15:09:19;18.45;;;14.18;;
1585;SDS011;786;48.718;9.514;2023-02-14T15:11:48;20.33;;;15.00;;
1585;SDS011;786;48.718;9.514;2023-02-14T15:14:36;16.67;;;13.23;;
1585;SDS011;786;48.718;9.514;2023-02-14T15:19:59;18.08;;;15.27;;
1585;SDS011;786;48.718;9.514;2023-02-14T15:22:27;18.20;;;14.60;;
1585;SDS011;786;48.718;9.514;2023-02-14T15:24:55;19.42;;;13.38;;
1585;SDS011;786;48.718;9.514;2023-02-14T15:27:23;20.15;;;14.60;;
1585;SDS011;786;48.718;9.514;2023-02-14T15:29:52;20.27;;;14.93;;
1585;SDS011;786;48.718;9.514;2023-02-14T15:32:19;17.83;;;13.02;;
1585;SDS011;786;48.718;9.514;2023-02-14T15:34:47;18.75;;;14.50;;
1585;SDS011;786;48.718;9.514;2023-02-14T15:37:14;19.50;;;14.27;;
1585;SDS011;786;48.718;9.514;2023-02-14T15:39:42;18.20;;;13.60;;